createdAt,value
2019-04-23T00:05:15.320Z,5.70
2019-04-23T00:08:07.869Z,5.67
2019-04-23T00:10:51.715Z,6.40
2019-04-23T00:13:44.171Z,5.87
2019-04-23T00:16:42.517Z,5.07
2019-04-23T00:19:24.637Z,6.03
2019-04-23T00:22:28.910Z,5.70
2019-04-23T00:25:43.650Z,4.93
2019-04-23T00:28:31.722Z,5.50
2019-04-23T00:31:26.945Z,4.53
2019-04-23T00:37:37.380Z,5.10
2019-04-23T00:40:28.413Z,6.90
2019-04-23T00:46:15.505Z,7.10
2019-04-23T00:55:14.678Z,6.63
2019-04-23T00:58:12.646Z,6.83
2019-04-23T01:01:04.137Z,7.37
2019-04-23T01:04:02.293Z,6.70
2019-04-23T01:09:54.192Z,7.10
2019-04-23T01:12:46.712Z,7.10
2019-04-23T01:15:39.774Z,7.50
2019-04-23T01:21:18.052Z,6.77
2019-04-23T01:24:38.117Z,6.93
2019-04-23T01:27:55.951Z,7.43
2019-04-23T01:30:59.719Z,8.20
2019-04-23T01:34:04.145Z,6.80
2019-04-23T01:36:41.219Z,7.30
2019-04-23T01:39:39.728Z,6.40
2019-04-23T01:42:43.959Z,6.67
2019-04-23T01:45:44.390Z,6.53
2019-04-23T01:48:36.003Z,6.60
2019-04-23T01:51:26.248Z,7.27
2019-04-23T01:54:22.589Z,9.00
2019-04-23T01:57:11.031Z,8.17
2019-04-23T02:00:10.276Z,8.17
2019-04-23T02:03:27.568Z,8.83
2019-04-23T02:06:38.661Z,8.17
2019-04-23T02:09:37.248Z,7.27
2019-04-23T02:12:27.695Z,7.77
2019-04-23T02:25:27.940Z,8.50
2019-04-23T02:28:24.259Z,8.00
2019-04-23T02:37:02.158Z,8.30
2019-04-23T02:46:01.560Z,8.20
2019-04-23T02:48:59.899Z,9.03
2019-04-23T02:51:45.945Z,8.23
2019-04-23T02:58:26.629Z,9.17
2019-04-23T03:07:54.217Z,8.33
2019-04-23T03:18:04.845Z,7.63
2019-04-23T03:21:10.188Z,8.63
2019-04-23T03:34:04.154Z,8.83
2019-04-23T03:42:33.240Z,9.00
2019-04-23T03:45:37.169Z,8.70
2019-04-23T03:48:34.138Z,8.87
2019-04-23T03:57:24.713Z,8.77
2019-04-23T04:00:12.611Z,9.53
2019-04-23T04:03:10.760Z,9.30
2019-04-23T04:05:56.208Z,8.47
2019-04-23T04:08:50.686Z,9.80
2019-04-23T04:11:25.474Z,9.23
2019-04-23T04:17:48.204Z,9.33
2019-04-23T04:32:33.604Z,9.30
2019-04-23T04:44:41.174Z,9.57
2019-04-23T04:48:11.949Z,9.30
2019-04-23T04:51:28.995Z,9.63
2019-04-23T04:54:13.912Z,9.33
2019-04-23T04:57:01.279Z,9.43
2019-04-23T05:12:01.097Z,9.97
2019-04-23T05:14:52.668Z,10.47
2019-04-23T05:17:57.257Z,9.30
2019-04-23T05:31:15.792Z,9.50
2019-04-23T05:42:26.549Z,8.00
2019-04-23T05:45:35.124Z,8.17
2019-04-23T05:48:30.617Z,7.90
2019-04-23T05:51:23.748Z,8.13
2019-04-23T05:54:15.442Z,7.63
2019-04-23T05:57:04.262Z,7.43
2019-04-23T06:10:11.295Z,7.53
2019-04-23T06:13:04.878Z,6.50
2019-04-23T06:15:53.934Z,6.50
2019-04-23T06:18:46.265Z,7.23
2019-04-23T06:21:34.245Z,7.30
2019-04-23T06:27:34.738Z,8.50
2019-04-23T06:30:26.569Z,8.10
2019-04-23T06:39:08.446Z,8.70
2019-04-23T06:42:01.989Z,10.10
2019-04-23T06:47:48.118Z,9.30
2019-04-23T06:50:37.034Z,8.10
2019-04-23T06:53:25.670Z,7.20
2019-04-23T06:56:19.124Z,6.47
2019-04-23T06:59:11.966Z,6.80
2019-04-23T07:02:20.116Z,7.00
2019-04-23T07:04:49.642Z,7.20
2019-04-23T07:07:55.230Z,6.50
2019-04-23T07:10:24.967Z,7.80
2019-04-23T07:13:29.556Z,6.67
2019-04-23T07:16:03.195Z,6.40
2019-04-23T07:19:12.778Z,6.20
2019-04-23T07:22:04.721Z,6.50
2019-04-23T07:24:41.864Z,6.40
2019-04-23T07:27:31.792Z,6.40
2019-04-23T07:33:11.835Z,6.23
2019-04-23T07:36:00.519Z,6.30
2019-04-23T07:45:28.108Z,6.40
2019-04-23T07:51:06.174Z,6.00
2019-04-23T07:54:01.487Z,5.83
2019-04-23T07:56:54.266Z,5.63
2019-04-23T07:59:47.419Z,5.57
2019-04-23T08:02:26.247Z,5.57
2019-04-23T08:05:26.782Z,5.83
2019-04-23T08:08:01.643Z,5.40
2019-04-23T08:11:25.817Z,5.10
2019-04-23T08:13:56.980Z,5.43
2019-04-23T08:16:56.189Z,4.60
2019-04-23T08:19:33.197Z,4.90
2019-04-23T08:25:35.502Z,5.43
2019-04-23T08:28:25.739Z,5.57
2019-04-23T08:31:09.938Z,5.33
2019-04-23T08:33:58.848Z,4.70
2019-04-23T08:39:38.628Z,4.20
2019-04-23T08:42:39.683Z,4.73
2019-04-23T08:45:18.578Z,5.20
2019-04-23T08:48:30.295Z,4.40
2019-04-23T08:51:09.657Z,4.43
2019-04-23T08:53:53.261Z,7.00
2019-04-23T08:56:41.305Z,4.30
2019-04-23T08:59:43.871Z,4.83
2019-04-23T09:02:35.875Z,4.77
2019-04-23T09:05:28.652Z,4.57
2019-04-23T09:08:15.388Z,4.77
2019-04-23T09:11:05.119Z,5.00
2019-04-23T09:16:44.924Z,4.77
2019-04-23T09:19:31.877Z,4.80
2019-04-23T09:25:14.635Z,4.47
2019-04-23T09:28:21.147Z,4.90
2019-04-23T09:30:49.334Z,5.17
2019-04-23T09:37:26.868Z,4.60
2019-04-23T09:40:31.471Z,4.67
2019-04-23T09:43:22.664Z,5.07
2019-04-23T09:46:34.849Z,5.07
2019-04-23T09:49:31.177Z,5.63
2019-04-23T09:58:11.756Z,4.90
2019-04-23T10:01:23.793Z,5.33
2019-04-23T10:03:57.723Z,5.33
2019-04-23T10:06:38.672Z,5.50
2019-04-23T10:13:08.267Z,5.20
2019-04-23T10:16:04.415Z,5.30
2019-04-23T10:22:56.750Z,5.70
2019-04-23T10:25:50.076Z,5.57
2019-04-23T10:32:25.269Z,6.60
2019-04-23T10:35:43.253Z,6.10
2019-04-23T10:38:26.819Z,5.53
2019-04-23T10:45:19.365Z,5.50
2019-04-23T10:54:34.274Z,6.23
2019-04-23T10:57:17.198Z,5.80
2019-04-23T11:00:36.824Z,5.50
2019-04-23T11:06:39.829Z,7.07
2019-04-23T11:09:49.651Z,5.87
2019-04-23T11:13:21.973Z,6.27
2019-04-23T11:18:56.759Z,6.70
2019-04-23T11:24:59.985Z,5.97
2019-04-23T11:27:46.929Z,6.47
2019-04-23T11:45:34.672Z,6.53
2019-04-23T11:48:36.583Z,7.27
2019-04-23T11:51:41.127Z,6.80
2019-04-23T11:59:40.923Z,6.57
2019-04-23T12:13:14.961Z,6.47
2019-04-23T12:16:43.533Z,6.53
2019-04-23T12:19:47.114Z,6.00
2019-04-23T12:22:17.464Z,6.47
2019-04-23T12:28:51.329Z,6.37
2019-04-23T12:31:47.749Z,6.50
2019-04-23T12:34:39.573Z,6.73
2019-04-23T12:37:34.546Z,6.63
2019-04-23T12:43:25.636Z,6.17
2019-04-23T12:46:26.615Z,6.00
2019-04-23T12:49:35.733Z,6.03
2019-04-23T12:52:25.301Z,6.10
2019-04-23T12:58:01.906Z,6.13
2019-04-23T13:00:54.469Z,6.27
2019-04-23T13:06:28.191Z,6.33
2019-04-23T13:09:38.964Z,6.53
2019-04-23T13:12:33.251Z,6.83
2019-04-23T13:23:43.832Z,6.00
2019-04-23T13:26:37.526Z,6.70
2019-04-23T13:29:38.178Z,6.00
2019-04-23T13:32:20.475Z,6.40
2019-04-23T13:35:22.113Z,6.73
2019-04-23T13:38:08.431Z,6.40
2019-04-23T13:43:48.182Z,6.50
2019-04-23T13:46:33.010Z,5.97
2019-04-23T13:49:30.040Z,6.50
2019-04-23T13:52:46.473Z,5.33
2019-04-23T13:58:22.691Z,5.27
2019-04-23T14:03:53.838Z,4.80
2019-04-23T14:06:51.954Z,5.40
2019-04-23T14:09:47.407Z,5.63
2019-04-23T14:12:34.834Z,3.30
2019-04-23T14:15:39.059Z,5.17
2019-04-23T14:21:09.917Z,4.90
2019-04-23T14:24:03.061Z,4.67
2019-04-23T14:26:35.204Z,5.33
2019-04-23T14:29:28.737Z,5.43
2019-04-23T14:32:34.100Z,5.20
2019-04-23T14:35:18.548Z,4.73
2019-04-23T14:38:11.356Z,4.97
2019-04-23T14:43:39.508Z,3.00
2019-04-23T14:49:11.705Z,4.33
2019-04-23T14:55:36.210Z,5.07
2019-04-23T14:57:51.578Z,4.50
2019-04-23T15:00:43.383Z,4.83
2019-04-23T15:03:33.270Z,4.40
2019-04-23T15:06:17.797Z,4.10
2019-04-23T15:12:02.331Z,4.50
2019-04-23T15:17:28.827Z,5.10
2019-04-23T15:20:21.321Z,2.73
2019-04-23T15:26:57.172Z,4.13
2019-04-23T15:28:34.171Z,4.27
2019-04-23T15:31:52.317Z,4.27
2019-04-23T15:34:23.529Z,4.17
2019-04-23T15:37:33.241Z,4.80
2019-04-23T15:40:08.069Z,3.80
2019-04-23T15:43:04.708Z,3.73
2019-04-23T15:45:44.499Z,3.67
2019-04-23T15:48:32.218Z,4.50
2019-04-23T15:51:30.976Z,4.47
2019-04-23T15:54:17.928Z,5.13
2019-04-23T15:59:51.996Z,5.00
2019-04-23T16:02:09.676Z,5.40
2019-04-23T16:04:58.058Z,4.73
2019-04-23T16:08:01.719Z,5.73
2019-04-23T16:11:17.139Z,5.70
2019-04-23T16:16:46.327Z,6.03
2019-04-23T16:19:43.667Z,14.70
2019-04-23T16:22:34.657Z,4.80
2019-04-23T16:25:28.010Z,4.33
2019-04-23T16:28:11.542Z,4.97
2019-04-23T16:31:07.549Z,4.80
2019-04-23T16:34:08.630Z,13.30
2019-04-23T16:36:43.806Z,6.70
2019-04-23T16:39:39.459Z,4.60
2019-04-23T16:45:15.207Z,4.70
2019-04-23T16:48:18.744Z,5.13
2019-04-23T16:53:35.147Z,5.13
2019-04-23T16:56:42.096Z,4.93
2019-04-23T16:59:18.569Z,4.80
2019-04-23T17:05:01.627Z,4.57
2019-04-23T17:07:53.324Z,4.80
2019-04-23T17:10:38.404Z,4.87
2019-04-23T17:13:29.063Z,5.43
2019-04-23T17:16:18.230Z,5.07
2019-04-23T17:19:02.169Z,4.70
2019-04-23T17:22:01.098Z,5.13
2019-04-23T17:24:59.428Z,4.70
2019-04-23T17:27:28.158Z,5.43
2019-04-23T17:30:19.914Z,5.00
2019-04-23T17:33:21.900Z,5.13
2019-04-23T17:36:24.091Z,5.93
2019-04-23T17:39:05.392Z,5.40
2019-04-23T17:42:27.293Z,4.87
2019-04-23T17:45:17.044Z,4.93
2019-04-23T17:48:12.930Z,6.00
2019-04-23T17:51:07.970Z,4.80
2019-04-23T17:53:52.151Z,4.40
2019-04-23T17:56:51.149Z,5.07
2019-04-23T18:00:00.970Z,4.83
2019-04-23T18:08:15.504Z,4.90
2019-04-23T18:17:01.562Z,5.17
2019-04-23T18:19:22.842Z,4.57
2019-04-23T18:22:25.998Z,5.23
2019-04-23T18:28:15.131Z,5.30
2019-04-23T18:31:13.169Z,5.07
2019-04-23T18:34:09.881Z,5.57
2019-04-23T18:37:07.788Z,5.93
2019-04-23T18:45:31.965Z,5.40
2019-04-23T18:51:11.651Z,5.77
2019-04-23T18:54:05.485Z,5.67
2019-04-23T18:57:09.834Z,5.87
2019-04-23T19:02:58.114Z,5.47
2019-04-23T19:06:01.150Z,5.30
2019-04-23T19:11:53.125Z,6.23
2019-04-23T19:15:06.065Z,5.87
2019-04-23T19:17:48.534Z,5.40
2019-04-23T19:21:09.232Z,6.53
2019-04-23T19:27:59.453Z,6.23
2019-04-23T19:35:04.319Z,6.53
2019-04-23T19:37:59.475Z,7.70
2019-04-23T19:47:09.337Z,6.43
2019-04-23T19:53:28.401Z,7.00
2019-04-23T19:53:43.002Z,6.60
2019-04-23T19:56:08.815Z,7.57
2019-04-23T20:09:50.810Z,6.87
2019-04-23T20:12:59.141Z,6.67
2019-04-23T20:16:05.359Z,6.93
2019-04-23T20:18:52.569Z,6.50
2019-04-23T20:22:06.234Z,6.60
2019-04-23T20:25:31.423Z,7.10
2019-04-23T20:34:49.817Z,7.57
2019-04-23T20:44:22.643Z,7.27
2019-04-23T20:47:17.638Z,7.23
2019-04-23T20:50:39.205Z,6.70
2019-04-23T20:54:12.650Z,7.30
2019-04-23T21:00:06.805Z,6.90
2019-04-23T21:10:18.131Z,7.30
2019-04-23T21:16:34.346Z,7.40
2019-04-23T21:20:05.507Z,8.10
2019-04-23T21:22:38.186Z,7.57
2019-04-23T21:25:37.067Z,8.03
2019-04-23T21:28:37.217Z,8.03
2019-04-23T21:35:04.934Z,7.80
2019-04-23T21:38:00.389Z,8.03
2019-04-23T21:41:41.849Z,7.97
2019-04-23T21:44:11.827Z,8.50
2019-04-23T21:47:04.715Z,7.70
2019-04-23T21:50:03.052Z,7.93
2019-04-23T21:52:52.281Z,8.13
2019-04-23T21:58:59.831Z,7.37
2019-04-23T22:01:48.669Z,8.23
2019-04-23T22:04:36.482Z,7.87
2019-04-23T22:07:25.178Z,8.10
2019-04-23T22:16:27.751Z,9.50
2019-04-23T22:24:49.950Z,8.17
2019-04-23T22:27:41.302Z,8.60
2019-04-23T22:34:06.323Z,8.33
2019-04-23T22:36:56.567Z,8.37
2019-04-23T23:16:57.945Z,7.90
2019-04-23T23:22:52.281Z,8.10
2019-04-23T23:25:31.505Z,8.20
2019-04-23T23:28:38.121Z,7.30
2019-04-23T23:31:22.504Z,7.93
2019-04-23T23:35:04.364Z,7.80
2019-04-23T23:37:46.284Z,8.37
2019-04-23T23:44:20.843Z,7.80
2019-04-23T23:47:10.883Z,7.97
2019-04-23T23:50:00.932Z,9.17
2019-04-23T23:53:13.915Z,7.87
2019-04-23T23:59:10.631Z,8.30
